Time;durP1;ratioP1;P1;durP2;ratioP2;P2;SDS_P1;SDS_P2;PMS_P1;PMS_P2;Temp;Humidity;BMP_temperature;BMP_pressure;BME280_temperature;BME280_humidity;BME280_pressure;Samples;Min_cycle;Max_cycle;Signal;HPM_P1;HPM_P2
2023/12/06 00:01:11;;;;;;;16.93;14.60;;;;;;;;;;5087765;27;20645;-54
2023/12/06 00:03:38;;;;;;;16.80;14.17;;;;;;;;;;5087775;28;20452;-54
2023/12/06 00:06:06;;;;;;;17.50;15.37;;;;;;;;;;5087912;28;20435;-54
2023/12/06 00:08:33;;;;;;;16.87;15.13;;;;;;;;;;5087115;28;20464;-55
2023/12/06 00:11:00;;;;;;;17.00;13.93;;;;;;;;;;5087570;28;20446;-54
2023/12/06 00:13:27;;;;;;;17.00;14.53;;;;;;;;;;5087668;28;20442;-54
2023/12/06 00:15:55;;;;;;;14.40;12.90;;;;;;;;;;5087380;28;20565;-54
2023/12/06 00:20:57;;;;;;;14.10;12.60;;;;;;;;;;5087701;27;21064;-55
2023/12/06 00:23:24;;;;;;;13.53;11.77;;;;;;;;;;5087866;28;20448;-54
2023/12/06 00:25:51;;;;;;;14.50;13.10;;;;;;;;;;5087607;28;20443;-54
2023/12/06 00:28:19;;;;;;;18.07;16.17;;;;;;;;;;5086853;28;20989;-54
2023/12/06 00:38:27;;;;;;;27.00;20.57;;;;;;;;;;5087483;27;20640;-54
2023/12/06 00:40:55;;;;;;;56.77;26.33;;;;;;;;;;5087646;28;20446;-53
2023/12/06 00:45:56;;;;;;;102.20;28.87;;;;;;;;;;5108086;27;20573;-54
2023/12/06 00:50:57;;;;;;;74.13;28.80;;;;;;;;;;5087477;27;20644;-54
2023/12/06 00:53:24;;;;;;;43.77;24.17;;;;;;;;;;5087339;28;20444;-54
2023/12/06 01:08:45;;;;;;;22.67;19.40;;;;;;;;;;5087455;27;21135;-54
2023/12/06 01:11:12;;;;;;;26.40;20.53;;;;;;;;;;5087700;28;20531;-55
2023/12/06 01:13:39;;;;;;;23.63;19.30;;;;;;;;;;5087602;28;20450;-54
2023/12/06 01:16:07;;;;;;;24.07;19.67;;;;;;;;;;5087783;28;20444;-54
2023/12/06 01:23:44;;;;;;;23.73;19.07;;;;;;;;;;5123582;27;20653;-55
2023/12/06 01:31:20;;;;;;;16.50;14.07;;;;;;;;;;5088341;27;20653;-54
2023/12/06 01:33:48;;;;;;;18.30;15.27;;;;;;;;;;5087902;28;20449;-54
2023/12/06 01:43:56;;;;;;;17.27;14.03;;;;;;;;;;5087898;27;21088;-54
2023/12/06 01:46:23;;;;;;;18.40;14.77;;;;;;;;;;5087971;28;20931;-54
2023/12/06 01:48:51;;;;;;;22.73;16.00;;;;;;;;;;5077000;22;20503;-89
2023/12/06 01:51:20;;;;;;;22.47;19.00;;;;;;;;;;5048546;28;20442;-90
2023/12/06 01:53:47;;;;;;;24.57;20.03;;;;;;;;;;5048027;28;20484;-90
2023/12/06 01:56:14;;;;;;;23.90;21.03;;;;;;;;;;5047952;28;20827;-90
2023/12/06 01:58:42;;;;;;;21.43;16.97;;;;;;;;;;5048050;28;20454;-90
2023/12/06 02:03:46;;;;;;;17.47;13.83;;;;;;;;;;5103940;27;20570;-53
2023/12/06 02:08:48;;;;;;;15.77;12.20;;;;;;;;;;5118715;27;20577;-53
2023/12/06 02:18:56;;;;;;;14.40;11.63;;;;;;;;;;5087728;27;20636;-55
2023/12/06 02:21:24;;;;;;;19.57;14.70;;;;;;;;;;5087720;28;21017;-53
2023/12/06 02:23:52;;;;;;;48.80;19.90;;;;;;;;;;5087722;28;20444;-54
2023/12/06 02:31:30;;;;;;;83.87;25.50;;;;;;;;;;5088227;27;20980;-53
2023/12/06 02:36:35;;;;;;;100.23;27.13;;;;;;;;;;5129194;27;20567;-52
2023/12/06 02:39:04;;;;;;;83.60;25.80;;;;;;;;;;5128491;28;20530;-52
2023/12/06 02:41:33;;;;;;;138.23;31.47;;;;;;;;;;5128960;27;20978;-52
2023/12/06 02:44:00;;;;;;;39.60;22.10;;;;;;;;;;5128526;27;20446;-52
2023/12/06 02:46:28;;;;;;;25.17;18.20;;;;;;;;;;5128854;27;20504;-53
2023/12/06 02:48:56;;;;;;;21.67;17.70;;;;;;;;;;5128002;27;20465;-52
2023/12/06 02:51:23;;;;;;;20.43;16.30;;;;;;;;;;5128953;27;20445;-52
2023/12/06 03:11:51;;;;;;;25.70;22.57;;;;;;;;;;5088183;27;21104;-53
2023/12/06 03:21:59;;;;;;;33.73;22.20;;;;;;;;;;5088255;27;20636;-54
2023/12/06 03:42:28;;;;;;;26.10;20.43;;;;;;;;;;5108565;27;20570;-54
2023/12/06 03:44:55;;;;;;;40.07;22.83;;;;;;;;;;5108519;28;20453;-52
2023/12/06 03:49:58;;;;;;;30.83;20.90;;;;;;;;;;5087990;27;20608;-52
2023/12/06 03:52:25;;;;;;;20.40;18.20;;;;;;;;;;5088379;28;20931;-56
2023/12/06 04:00:03;;;;;;;19.70;17.43;;;;;;;;;;5108133;27;20650;-53
2023/12/06 04:02:30;;;;;;;19.80;17.53;;;;;;;;;;5108565;28;20443;-53
2023/12/06 04:17:48;;;;;;;23.10;17.43;;;;;;;;;;5088006;27;20566;-53
2023/12/06 04:30:33;;;;;;;21.17;17.20;;;;;;;;;;5088791;27;20645;-53
2023/12/06 04:35:34;;;;;;;22.33;17.37;;;;;;;;;;5088775;27;21100;-55
2023/12/06 04:38:02;;;;;;;22.13;17.37;;;;;;;;;;5087282;28;20993;-55
2023/12/06 04:40:29;;;;;;;16.17;14.47;;;;;;;;;;5087829;28;20439;-54
2023/12/06 04:42:56;;;;;;;16.37;14.63;;;;;;;;;;5087688;28;20814;-54
2023/12/06 04:45:24;;;;;;;15.60;13.93;;;;;;;;;;5088071;28;20529;-55
2023/12/06 04:47:51;;;;;;;20.10;15.17;;;;;;;;;;5087357;28;20929;-54
2023/12/06 04:50:18;;;;;;;26.50;20.03;;;;;;;;;;5087717;28;20443;-55
2023/12/06 04:52:47;;;;;;;28.80;21.93;;;;;;;;;;5087918;28;21007;-53
2023/12/06 04:55:14;;;;;;;31.73;23.20;;;;;;;;;;5087495;28;20456;-53
2023/12/06 04:57:42;;;;;;;30.60;23.20;;;;;;;;;;5087735;28;20493;-52
2023/12/06 05:00:09;;;;;;;28.73;21.67;;;;;;;;;;5087529;28;20444;-52
2023/12/06 05:02:37;;;;;;;28.53;20.97;;;;;;;;;;5087830;28;20439;-52
2023/12/06 05:05:05;;;;;;;26.93;20.77;;;;;;;;;;5085875;28;20576;-54
2023/12/06 05:07:32;;;;;;;25.33;20.80;;;;;;;;;;5087638;28;20530;-54
2023/12/06 05:10:01;;;;;;;23.23;18.70;;;;;;;;;;5086741;28;20467;-53
2023/12/06 05:12:28;;;;;;;23.27;18.47;;;;;;;;;;5087589;28;20440;-53
2023/12/06 05:14:55;;;;;;;25.37;20.20;;;;;;;;;;5087596;28;20435;-55
2023/12/06 05:17:23;;;;;;;20.00;17.80;;;;;;;;;;5087602;28;20447;-56
2023/12/06 05:19:50;;;;;;;18.47;15.63;;;;;;;;;;5087010;28;20990;-55
2023/12/06 05:22:17;;;;;;;17.77;14.00;;;;;;;;;;5071835;28;20440;-51
2023/12/06 05:24:45;;;;;;;15.70;13.23;;;;;;;;;;5087313;28;21001;-52
2023/12/06 05:27:13;;;;;;;15.47;12.17;;;;;;;;;;5087324;28;20452;-52
2023/12/06 05:29:41;;;;;;;17.10;14.70;;;;;;;;;;5086051;28;20463;-53
2023/12/06 06:00:24;;;;;;;18.33;15.40;;;;;;;;;;5094678;27;22202;-53
2023/12/06 06:15:43;;;;;;;22.80;19.37;;;;;;;;;;5096424;27;21062;-53
2023/12/06 06:18:11;;;;;;;21.20;16.90;;;;;;;;;;5086520;28;20456;-53
2023/12/06 06:30:53;;;;;;;21.00;18.50;;;;;;;;;;5101744;27;20668;-53
2023/12/06 06:33:21;;;;;;;42.40;26.27;;;;;;;;;;5095959;28;20449;-53
2023/12/06 06:35:48;;;;;;;136.47;40.57;;;;;;;;;;5088484;28;20468;-52
2023/12/06 06:38:16;;;;;;;98.30;39.27;;;;;;;;;;5087376;28;20507;-52
2023/12/06 06:40:44;;;;;;;33.13;25.80;;;;;;;;;;5087832;28;20992;-52
2023/12/06 06:45:46;;;;;;;39.20;29.30;;;;;;;;;;5088227;27;20589;-56
2023/12/06 06:48:13;;;;;;;54.90;32.00;;;;;;;;;;5080492;28;20524;-54
2023/12/06 07:06:02;;;;;;;46.00;32.97;;;;;;;;;;5087986;27;20567;-54
2023/12/06 07:11:05;;;;;;;42.20;31.20;;;;;;;;;;5108512;27;20569;-53
2023/12/06 07:28:58;;;;;;;41.73;31.33;;;;;;;;;;5088050;27;21132;-54
2023/12/06 07:31:25;;;;;;;44.77;32.77;;;;;;;;;;5087352;28;20443;-54
2023/12/06 07:33:53;;;;;;;39.07;32.80;;;;;;;;;;5087598;28;20444;-51
2023/12/06 07:36:20;;;;;;;39.90;32.70;;;;;;;;;;5087980;28;20926;-53
2023/12/06 07:38:47;;;;;;;38.53;32.20;;;;;;;;;;5087770;28;20525;-55
2023/12/06 07:41:15;;;;;;;39.73;32.53;;;;;;;;;;5087892;28;20979;-54
2023/12/06 07:46:16;;;;;;;34.57;29.13;;;;;;;;;;5088014;27;20614;-53
2023/12/06 07:51:18;;;;;;;31.83;23.87;;;;;;;;;;5088092;27;20589;-54
2023/12/06 07:53:46;;;;;;;29.67;24.83;;;;;;;;;;5087698;28;20521;-54
2023/12/06 07:56:13;;;;;;;28.00;24.90;;;;;;;;;;5087477;28;20437;-54
2023/12/06 07:58:40;;;;;;;24.23;19.40;;;;;;;;;;5086950;28;20850;-54
2023/12/06 08:01:08;;;;;;;24.40;21.37;;;;;;;;;;5069330;28;20439;-53
2023/12/06 08:03:35;;;;;;;23.60;18.57;;;;;;;;;;5070209;28;20622;-54
2023/12/06 08:06:05;;;;;;;21.27;18.23;;;;;;;;;;5067828;28;20467;-54
2023/12/06 08:08:34;;;;;;;18.70;15.43;;;;;;;;;;5067300;28;20475;-55
2023/12/06 08:29:03;;;;;;;28.37;24.50;;;;;;;;;;5087439;27;21123;-55
2023/12/06 08:31:31;;;;;;;30.97;24.50;;;;;;;;;;5087727;28;20453;-54
2023/12/06 08:33:58;;;;;;;29.30;24.33;;;;;;;;;;5087393;28;20443;-54
2023/12/06 08:38:59;;;;;;;27.90;22.70;;;;;;;;;;5107707;27;20641;-54
2023/12/06 08:41:26;;;;;;;40.20;31.53;;;;;;;;;;5108319;28;20443;-55
2023/12/06 08:43:54;;;;;;;33.00;26.23;;;;;;;;;;5107732;28;20950;-54
2023/12/06 08:46:22;;;;;;;22.97;20.63;;;;;;;;;;5108131;28;20443;-54
2023/12/06 08:51:23;;;;;;;19.10;16.20;;;;;;;;;;5088131;27;20648;-55
2023/12/06 08:53:50;;;;;;;18.00;14.07;;;;;;;;;;5088052;28;20444;-54
2023/12/06 08:56:17;;;;;;;17.57;14.63;;;;;;;;;;5071834;28;20436;-54
2023/12/06 08:58:45;;;;;;;17.13;15.30;;;;;;;;;;5087109;28;20466;-56
2023/12/06 09:08:52;;;;;;;32.27;26.83;;;;;;;;;;5085962;27;20631;-54
2023/12/06 09:13:54;;;;;;;32.73;27.80;;;;;;;;;;5106622;27;21048;-54
2023/12/06 09:16:21;;;;;;;32.53;26.07;;;;;;;;;;5107146;28;20447;-54
2023/12/06 09:18:49;;;;;;;34.23;28.07;;;;;;;;;;5107707;28;20533;-54
2023/12/06 09:21:16;;;;;;;39.50;34.10;;;;;;;;;;5107907;28;21016;-55
2023/12/06 09:23:43;;;;;;;39.60;33.93;;;;;;;;;;5108060;28;20857;-54
2023/12/06 09:26:11;;;;;;;35.40;31.60;;;;;;;;;;5105142;28;20439;-54
2023/12/06 09:28:39;;;;;;;44.40;36.43;;;;;;;;;;5104978;28;20515;-55
2023/12/06 09:31:07;;;;;;;41.23;33.67;;;;;;;;;;5103974;28;20478;-56
2023/12/06 09:33:35;;;;;;;39.93;33.40;;;;;;;;;;5099188;28;20447;-54
2023/12/06 09:36:03;;;;;;;42.60;32.20;;;;;;;;;;5105796;28;20860;-54
2023/12/06 09:38:31;;;;;;;37.43;30.73;;;;;;;;;;5084849;28;20472;-55
2023/12/06 09:40:58;;;;;;;47.10;35.27;;;;;;;;;;5102976;28;20453;-54
2023/12/06 09:46:01;;;;;;;34.63;29.50;;;;;;;;;;5108344;27;21136;-54
2023/12/06 09:48:28;;;;;;;33.70;27.30;;;;;;;;;;5094241;28;20546;-54
2023/12/06 09:53:29;;;;;;;35.07;30.20;;;;;;;;;;5087074;27;20609;-54
2023/12/06 09:58:32;;;;;;;33.73;27.63;;;;;;;;;;5087126;27;20570;-54
2023/12/06 10:01:01;;;;;;;37.20;30.70;;;;;;;;;;5087294;28;20446;-55
2023/12/06 10:03:28;;;;;;;34.00;29.37;;;;;;;;;;5087597;28;20834;-54
2023/12/06 10:05:56;;;;;;;43.97;33.30;;;;;;;;;;5081832;28;20459;-55
2023/12/06 10:08:23;;;;;;;45.03;30.87;;;;;;;;;;5073574;28;20483;-54
2023/12/06 10:11:00;;;;;;;38.73;32.10;;;;;;;;;;5073154;28;20931;-54
2023/12/06 10:16:15;;;;;;;43.33;29.90;;;;;;;;;;5087758;27;20638;-55
2023/12/06 10:18:43;;;;;;;36.47;28.93;;;;;;;;;;5087124;28;20513;-55
2023/12/06 10:21:10;;;;;;;36.30;29.20;;;;;;;;;;5084410;28;20776;-54
2023/12/06 10:23:37;;;;;;;35.33;29.70;;;;;;;;;;5083873;28;20995;-54
2023/12/06 10:26:07;;;;;;;38.63;31.13;;;;;;;;;;5083061;28;20595;-54
2023/12/06 10:28:36;;;;;;;35.40;30.07;;;;;;;;;;5086993;28;20464;-54
2023/12/06 10:31:03;;;;;;;39.83;30.57;;;;;;;;;;5073891;28;20538;-55
2023/12/06 10:33:32;;;;;;;37.20;31.17;;;;;;;;;;5083561;28;20821;-54
2023/12/06 10:36:01;;;;;;;38.37;30.40;;;;;;;;;;5081968;28;20488;-54
2023/12/06 10:38:29;;;;;;;39.90;32.30;;;;;;;;;;5083616;28;20470;-54
2023/12/06 10:40:58;;;;;;;39.40;31.47;;;;;;;;;;5080764;28;20969;-55
2023/12/06 10:43:25;;;;;;;38.87;30.00;;;;;;;;;;5083999;28;20549;-54
2023/12/06 10:45:53;;;;;;;33.90;29.93;;;;;;;;;;5079853;28;20490;-54
2023/12/06 10:48:20;;;;;;;37.70;31.43;;;;;;;;;;5080120;28;20464;-54
2023/12/06 10:50:50;;;;;;;42.63;33.53;;;;;;;;;;5081628;28;20431;-55
2023/12/06 10:53:19;;;;;;;37.70;31.87;;;;;;;;;;5087292;28;20513;-54
2023/12/06 10:55:47;;;;;;;40.33;34.07;;;;;;;;;;5087042;28;20506;-54
2023/12/06 10:58:17;;;;;;;36.00;30.07;;;;;;;;;;5086414;28;20468;-54
2023/12/06 11:00:46;;;;;;;36.70;30.67;;;;;;;;;;5086693;28;20444;-54
2023/12/06 11:03:13;;;;;;;35.67;31.20;;;;;;;;;;5086809;28;20444;-54
2023/12/06 11:05:42;;;;;;;34.67;30.87;;;;;;;;;;5086819;28;20436;-54
2023/12/06 11:08:17;;;;;;;39.67;30.37;;;;;;;;;;5086300;28;20446;-54
2023/12/06 11:10:50;;;;;;;34.67;27.70;;;;;;;;;;5086636;28;20462;-54
2023/12/06 11:13:23;;;;;;;29.97;26.77;;;;;;;;;;5086618;28;20440;-54
2023/12/06 11:16:07;;;;;;;29.73;25.70;;;;;;;;;;5068109;28;20479;-54
2023/12/06 11:18:39;;;;;;;26.97;23.47;;;;;;;;;;5067245;28;20502;-54
2023/12/06 11:21:07;;;;;;;32.57;27.20;;;;;;;;;;5070752;28;20935;-54
2023/12/06 11:23:36;;;;;;;30.70;26.63;;;;;;;;;;5069797;28;20439;-54
2023/12/06 11:26:04;;;;;;;31.60;28.20;;;;;;;;;;5065595;28;20533;-55
2023/12/06 11:28:39;;;;;;;33.83;26.27;;;;;;;;;;5053263;28;20659;-56
2023/12/06 11:31:07;;;;;;;30.50;26.57;;;;;;;;;;5057756;28;20523;-53
2023/12/06 11:33:34;;;;;;;30.80;24.67;;;;;;;;;;5056016;28;20908;-55
2023/12/06 11:36:01;;;;;;;35.93;29.13;;;;;;;;;;5056912;28;20480;-54
2023/12/06 11:41:07;;;;;;;37.07;31.37;;;;;;;;;;5126510;27;21000;-54
2023/12/06 11:43:35;;;;;;;35.10;30.10;;;;;;;;;;5127434;28;20446;-54
2023/12/06 11:46:03;;;;;;;32.30;27.80;;;;;;;;;;5127728;28;21000;-54
2023/12/06 11:48:30;;;;;;;32.50;28.30;;;;;;;;;;5127704;27;20482;-54
2023/12/06 11:50:59;;;;;;;33.57;30.07;;;;;;;;;;5125678;27;20443;-54
2023/12/06 11:53:28;;;;;;;35.90;30.10;;;;;;;;;;5128462;27;20863;-54
2023/12/06 11:55:55;;;;;;;36.00;30.53;;;;;;;;;;5128026;27;20446;-54
2023/12/06 11:58:30;;;;;;;33.93;30.27;;;;;;;;;;5128149;27;20543;-54
2023/12/06 12:00:57;;;;;;;38.73;33.47;;;;;;;;;;5127981;27;20569;-55
2023/12/06 12:03:26;;;;;;;41.60;35.87;;;;;;;;;;5128419;27;20446;-54
2023/12/06 12:05:54;;;;;;;38.80;32.50;;;;;;;;;;5127808;27;20447;-56
2023/12/06 12:08:21;;;;;;;40.83;35.93;;;;;;;;;;5127666;27;20493;-54
2023/12/06 12:10:50;;;;;;;41.30;34.60;;;;;;;;;;5127848;27;20450;-54
2023/12/06 12:13:18;;;;;;;39.80;34.87;;;;;;;;;;5111188;27;20571;-55
2023/12/06 12:15:52;;;;;;;38.17;32.97;;;;;;;;;;5115137;28;20529;-55
2023/12/06 12:18:19;;;;;;;35.33;30.70;;;;;;;;;;5106134;28;20566;-55
2023/12/06 12:20:47;;;;;;;37.10;33.20;;;;;;;;;;5106842;28;20545;-55
2023/12/06 12:23:14;;;;;;;35.30;29.37;;;;;;;;;;5106682;28;20448;-54
2023/12/06 12:28:23;;;;;;;34.03;30.40;;;;;;;;;;5089412;27;20656;-56
2023/12/06 12:30:52;;;;;;;38.83;32.20;;;;;;;;;;5084038;28;20448;-54
2023/12/06 12:33:20;;;;;;;35.47;31.57;;;;;;;;;;5073431;28;20464;-55
2023/12/06 12:35:47;;;;;;;37.00;32.37;;;;;;;;;;5087464;28;20444;-55
2023/12/06 12:38:15;;;;;;;45.10;31.93;;;;;;;;;;5086952;28;20447;-56
2023/12/06 12:40:43;;;;;;;32.43;29.10;;;;;;;;;;5079336;28;20561;-56
2023/12/06 12:43:12;;;;;;;39.33;33.30;;;;;;;;;;5084376;28;20457;-54
2023/12/06 12:45:41;;;;;;;35.73;31.13;;;;;;;;;;5080130;28;20508;-56
2023/12/06 12:48:08;;;;;;;36.87;31.87;;;;;;;;;;5081641;28;20480;-53
2023/12/06 12:50:37;;;;;;;38.03;31.67;;;;;;;;;;5078661;28;20441;-56
2023/12/06 12:53:04;;;;;;;34.70;30.43;;;;;;;;;;5082471;28;20812;-54
2023/12/06 12:55:33;;;;;;;35.27;30.40;;;;;;;;;;5084698;28;21130;-55
2023/12/06 12:58:02;;;;;;;35.90;30.47;;;;;;;;;;5082744;28;20441;-54
2023/12/06 13:00:30;;;;;;;33.80;30.00;;;;;;;;;;5062906;28;20445;-53
2023/12/06 13:02:59;;;;;;;34.37;30.30;;;;;;;;;;5065734;28;20524;-54
2023/12/06 13:08:04;;;;;;;36.53;30.73;;;;;;;;;;5073735;27;20582;-54
2023/12/06 13:10:31;;;;;;;31.57;28.07;;;;;;;;;;5072358;28;20475;-54
2023/12/06 13:12:58;;;;;;;39.40;31.37;;;;;;;;;;5072821;28;20532;-54
2023/12/06 13:15:26;;;;;;;35.90;29.90;;;;;;;;;;5072998;28;20437;-55
2023/12/06 13:17:53;;;;;;;34.70;30.00;;;;;;;;;;5076833;28;20482;-55
2023/12/06 13:20:22;;;;;;;35.60;31.57;;;;;;;;;;5086463;28;20469;-55
2023/12/06 13:22:49;;;;;;;30.13;26.83;;;;;;;;;;5087685;28;20535;-54
2023/12/06 13:25:18;;;;;;;33.63;26.53;;;;;;;;;;5084887;28;20488;-54
2023/12/06 13:27:46;;;;;;;28.43;25.50;;;;;;;;;;5085200;28;20492;-54
2023/12/06 13:30:14;;;;;;;31.20;26.57;;;;;;;;;;5086292;28;20478;-55
2023/12/06 13:32:41;;;;;;;30.37;26.37;;;;;;;;;;5086913;28;20819;-55
2023/12/06 13:35:10;;;;;;;35.10;29.27;;;;;;;;;;5086325;28;20507;-54
2023/12/06 13:37:37;;;;;;;29.40;25.87;;;;;;;;;;5087137;28;20872;-54
2023/12/06 13:40:05;;;;;;;28.03;24.50;;;;;;;;;;5087047;28;20465;-54
2023/12/06 13:42:34;;;;;;;31.20;25.17;;;;;;;;;;5087286;28;20444;-54
2023/12/06 13:45:01;;;;;;;28.33;24.97;;;;;;;;;;5086771;28;20450;-55
2023/12/06 13:47:28;;;;;;;30.97;27.50;;;;;;;;;;5086347;28;20478;-53
2023/12/06 13:49:56;;;;;;;33.53;29.07;;;;;;;;;;5111352;22;20502;-53
2023/12/06 13:52:23;;;;;;;32.43;28.63;;;;;;;;;;5045280;28;20439;-54
2023/12/06 13:54:51;;;;;;;33.50;29.90;;;;;;;;;;5044916;28;20879;-55
2023/12/06 13:57:18;;;;;;;34.20;30.03;;;;;;;;;;5044827;28;20534;-54
2023/12/06 13:59:47;;;;;;;35.70;30.90;;;;;;;;;;5040269;28;20872;-54
2023/12/06 14:02:14;;;;;;;38.70;30.33;;;;;;;;;;5044212;28;20962;-55
2023/12/06 14:04:42;;;;;;;34.47;28.27;;;;;;;;;;5045617;28;20476;-52
2023/12/06 14:07:09;;;;;;;34.47;30.53;;;;;;;;;;5046255;28;20514;-55
2023/12/06 14:09:36;;;;;;;38.07;31.23;;;;;;;;;;5046351;28;20466;-54
2023/12/06 14:12:04;;;;;;;31.27;26.50;;;;;;;;;;5042343;28;20442;-54
2023/12/06 14:14:31;;;;;;;32.77;29.27;;;;;;;;;;5046243;28;20433;-53
2023/12/06 14:17:00;;;;;;;35.47;31.67;;;;;;;;;;5043960;28;20842;-54
2023/12/06 14:19:27;;;;;;;31.60;28.30;;;;;;;;;;5011573;28;20916;-53
2023/12/06 14:21:54;;;;;;;34.37;28.23;;;;;;;;;;5029824;28;20442;-54
2023/12/06 14:24:22;;;;;;;32.40;25.77;;;;;;;;;;5032927;28;20542;-55
2023/12/06 14:26:49;;;;;;;29.13;26.13;;;;;;;;;;5032313;28;21027;-54
2023/12/06 14:29:17;;;;;;;33.03;26.40;;;;;;;;;;5026384;28;20469;-55
2023/12/06 14:31:45;;;;;;;29.00;25.73;;;;;;;;;;5031445;28;20436;-54
2023/12/06 14:36:48;;;;;;;30.70;26.57;;;;;;;;;;5086923;27;21126;-54
2023/12/06 14:39:15;;;;;;;34.07;30.60;;;;;;;;;;5074925;28;20579;-56
2023/12/06 14:41:43;;;;;;;34.17;30.57;;;;;;;;;;5065159;28;20449;-53
2023/12/06 14:44:10;;;;;;;37.00;33.03;;;;;;;;;;5076035;28;20453;-53
2023/12/06 14:46:37;;;;;;;38.00;32.37;;;;;;;;;;5064716;28;20897;-55
2023/12/06 14:49:05;;;;;;;34.80;30.63;;;;;;;;;;5073722;28;20470;-56
2023/12/06 14:51:32;;;;;;;32.50;28.97;;;;;;;;;;5060352;28;20945;-56
2023/12/06 14:54:01;;;;;;;35.57;31.77;;;;;;;;;;5068769;28;20504;-56
2023/12/06 14:56:29;;;;;;;34.53;30.87;;;;;;;;;;5069782;28;20435;-54
2023/12/06 14:58:56;;;;;;;36.57;29.50;;;;;;;;;;5084673;28;20475;-53
2023/12/06 15:01:32;;;;;;;32.53;28.30;;;;;;;;;;5086814;28;20446;-56
2023/12/06 15:04:00;;;;;;;34.00;26.30;;;;;;;;;;5087013;28;20838;-57
2023/12/06 15:06:27;;;;;;;29.40;26.20;;;;;;;;;;5086595;28;20489;-56
2023/12/06 15:08:55;;;;;;;34.03;27.20;;;;;;;;;;5086619;28;21070;-55
2023/12/06 15:11:23;;;;;;;30.53;25.90;;;;;;;;;;5086871;28;20938;-57
2023/12/06 15:13:51;;;;;;;30.40;27.10;;;;;;;;;;5079916;28;21021;-54
2023/12/06 15:16:18;;;;;;;32.87;27.17;;;;;;;;;;5086178;28;20448;-56
2023/12/06 15:18:45;;;;;;;27.63;23.83;;;;;;;;;;5083988;28;20829;-55
2023/12/06 15:21:13;;;;;;;25.93;22.33;;;;;;;;;;5084352;28;20445;-55
2023/12/06 15:23:40;;;;;;;24.07;20.60;;;;;;;;;;5084707;28;20472;-55
2023/12/06 15:26:08;;;;;;;25.37;20.47;;;;;;;;;;5085225;28;20483;-54
2023/12/06 15:28:36;;;;;;;23.90;21.07;;;;;;;;;;5085606;28;20501;-54
2023/12/06 15:31:04;;;;;;;22.03;18.60;;;;;;;;;;5083501;28;20852;-55
2023/12/06 15:33:31;;;;;;;30.70;24.50;;;;;;;;;;5080144;28;20448;-56
2023/12/06 15:35:58;;;;;;;36.30;30.23;;;;;;;;;;5085514;28;20454;-53
2023/12/06 15:38:26;;;;;;;37.00;32.60;;;;;;;;;;5086163;28;20840;-54
2023/12/06 15:40:53;;;;;;;42.13;33.90;;;;;;;;;;5086147;28;20763;-53
2023/12/06 15:43:23;;;;;;;38.67;33.53;;;;;;;;;;5086470;28;20931;-55
2023/12/06 15:45:52;;;;;;;40.57;34.23;;;;;;;;;;5085996;28;20487;-54
2023/12/06 15:48:19;;;;;;;41.20;34.53;;;;;;;;;;5071840;28;20456;-53
2023/12/06 15:50:47;;;;;;;40.20;33.97;;;;;;;;;;5073202;28;20517;-54
2023/12/06 15:53:14;;;;;;;44.30;36.97;;;;;;;;;;5072957;28;20445;-55
2023/12/06 15:55:42;;;;;;;40.87;34.80;;;;;;;;;;5063291;28;20469;-55
2023/12/06 15:58:09;;;;;;;46.97;35.03;;;;;;;;;;5054520;28;20461;-54
2023/12/06 16:00:37;;;;;;;46.30;36.97;;;;;;;;;;5054290;28;20469;-55
2023/12/06 16:03:07;;;;;;;42.50;36.77;;;;;;;;;;5063336;28;20458;-54
2023/12/06 16:05:34;;;;;;;44.20;36.67;;;;;;;;;;5059338;28;20475;-53
2023/12/06 16:08:01;;;;;;;46.90;37.17;;;;;;;;;;5056380;28;20446;-53
2023/12/06 16:10:29;;;;;;;45.17;37.50;;;;;;;;;;5072323;28;20831;-56
2023/12/06 16:12:56;;;;;;;44.60;36.80;;;;;;;;;;5063941;28;20444;-55
2023/12/06 16:15:23;;;;;;;44.60;36.73;;;;;;;;;;5054977;28;20499;-56
2023/12/06 16:17:51;;;;;;;44.53;37.23;;;;;;;;;;5055751;28;20434;-54
2023/12/06 16:20:20;;;;;;;50.60;39.90;;;;;;;;;;5051604;28;20507;-55
2023/12/06 16:22:47;;;;;;;58.50;45.77;;;;;;;;;;5052291;28;20532;-56
2023/12/06 16:25:15;;;;;;;47.40;36.57;;;;;;;;;;5054542;28;20477;-53
2023/12/06 16:27:42;;;;;;;38.60;32.67;;;;;;;;;;5052845;28;20963;-56
2023/12/06 16:30:10;;;;;;;36.77;32.87;;;;;;;;;;5054159;28;20510;-54
2023/12/06 16:32:37;;;;;;;44.00;35.77;;;;;;;;;;5056198;28;20439;-54
2023/12/06 16:35:04;;;;;;;32.87;28.07;;;;;;;;;;5054838;28;20506;-56
2023/12/06 16:37:33;;;;;;;30.30;26.90;;;;;;;;;;5053906;28;20441;-55
2023/12/06 16:40:00;;;;;;;36.20;29.00;;;;;;;;;;5054424;28;20514;-54
2023/12/06 16:42:28;;;;;;;32.60;26.60;;;;;;;;;;5054546;28;20481;-53
2023/12/06 16:44:55;;;;;;;33.97;29.00;;;;;;;;;;5055557;28;20438;-56
2023/12/06 16:47:23;;;;;;;39.73;32.27;;;;;;;;;;5053119;28;20910;-55
2023/12/06 16:49:50;;;;;;;34.20;30.30;;;;;;;;;;5053570;28;20721;-56
2023/12/06 16:52:18;;;;;;;55.97;40.20;;;;;;;;;;5053067;28;20447;-53
2023/12/06 16:54:47;;;;;;;48.33;36.80;;;;;;;;;;5052057;28;20473;-55
2023/12/06 16:57:15;;;;;;;47.17;36.97;;;;;;;;;;5052458;28;20464;-55
2023/12/06 16:59:43;;;;;;;39.47;30.77;;;;;;;;;;5052164;28;20540;-54
2023/12/06 17:02:10;;;;;;;45.07;34.87;;;;;;;;;;5053833;28;20911;-55
2023/12/06 17:04:37;;;;;;;25.90;21.70;;;;;;;;;;5044145;28;20503;-55
2023/12/06 17:07:05;;;;;;;52.90;40.07;;;;;;;;;;5042874;28;20859;-55
2023/12/06 17:09:33;;;;;;;45.77;37.67;;;;;;;;;;5042402;28;20856;-56
2023/12/06 17:12:02;;;;;;;43.47;35.67;;;;;;;;;;5048037;28;20437;-53
2023/12/06 17:14:29;;;;;;;40.60;34.97;;;;;;;;;;5047974;28;20473;-54
2023/12/06 17:16:57;;;;;;;50.73;39.43;;;;;;;;;;5047477;28;20789;-53
2023/12/06 17:19:24;;;;;;;50.20;37.27;;;;;;;;;;5046988;28;20463;-56
2023/12/06 17:21:52;;;;;;;47.20;35.77;;;;;;;;;;5047248;28;20512;-54
2023/12/06 17:24:19;;;;;;;48.30;36.87;;;;;;;;;;5047628;28;20433;-54
2023/12/06 17:26:46;;;;;;;45.47;36.50;;;;;;;;;;5047777;28;20479;-55
2023/12/06 17:29:15;;;;;;;47.60;38.37;;;;;;;;;;5046927;28;20463;-53
2023/12/06 17:31:42;;;;;;;47.30;37.10;;;;;;;;;;5047502;28;20454;-55
2023/12/06 17:34:10;;;;;;;46.47;36.97;;;;;;;;;;5042361;28;20446;-56
2023/12/06 17:36:37;;;;;;;48.47;38.53;;;;;;;;;;5043630;28;20958;-56
2023/12/06 17:39:04;;;;;;;45.57;37.37;;;;;;;;;;5047570;28;20463;-54
2023/12/06 17:41:33;;;;;;;45.63;39.90;;;;;;;;;;5047207;28;20441;-53
2023/12/06 17:44:00;;;;;;;46.97;37.90;;;;;;;;;;5043705;28;20443;-54
2023/12/06 17:46:29;;;;;;;43.13;37.73;;;;;;;;;;5047591;28;20484;-53
2023/12/06 17:48:56;;;;;;;47.97;39.50;;;;;;;;;;5049286;28;20461;-55
2023/12/06 17:51:23;;;;;;;46.13;37.00;;;;;;;;;;5047385;28;20928;-55
2023/12/06 17:53:51;;;;;;;46.30;38.90;;;;;;;;;;5042430;28;20501;-54
2023/12/06 17:56:18;;;;;;;44.80;34.57;;;;;;;;;;5044994;28;20460;-54
2023/12/06 17:58:46;;;;;;;40.23;33.50;;;;;;;;;;5046137;28;20469;-55
2023/12/06 18:01:14;;;;;;;47.37;36.67;;;;;;;;;;5046836;28;20437;-53
2023/12/06 18:03:43;;;;;;;53.53;40.13;;;;;;;;;;5047396;28;20528;-55
2023/12/06 18:06:12;;;;;;;46.87;37.73;;;;;;;;;;5045828;28;20484;-56
2023/12/06 18:08:40;;;;;;;46.10;35.90;;;;;;;;;;5047112;28;20817;-54
2023/12/06 18:11:07;;;;;;;44.87;34.50;;;;;;;;;;5046233;28;20942;-56
2023/12/06 18:13:34;;;;;;;37.63;31.00;;;;;;;;;;5047149;28;20433;-53
2023/12/06 18:16:02;;;;;;;37.77;30.00;;;;;;;;;;5045799;28;20433;-53
2023/12/06 18:18:29;;;;;;;40.93;31.57;;;;;;;;;;5045798;28;20441;-53
2023/12/06 18:20:58;;;;;;;39.63;32.87;;;;;;;;;;5045582;28;20914;-53
2023/12/06 18:23:25;;;;;;;43.90;37.10;;;;;;;;;;5045534;28;20463;-54
2023/12/06 18:25:52;;;;;;;46.67;36.93;;;;;;;;;;5049072;28;20943;-55
2023/12/06 18:28:20;;;;;;;44.67;36.93;;;;;;;;;;5045246;28;20827;-54
2023/12/06 18:30:47;;;;;;;47.73;36.63;;;;;;;;;;5041448;28;20966;-56
2023/12/06 18:33:14;;;;;;;45.70;38.53;;;;;;;;;;5044177;28;20495;-55
2023/12/06 18:35:42;;;;;;;44.87;39.17;;;;;;;;;;5044420;28;21003;-54
2023/12/06 18:38:10;;;;;;;54.60;40.27;;;;;;;;;;5046645;28;20445;-53
2023/12/06 18:40:38;;;;;;;45.07;36.80;;;;;;;;;;5049799;28;20469;-55
2023/12/06 18:43:05;;;;;;;44.13;37.30;;;;;;;;;;5045850;28;20500;-54
2023/12/06 18:45:33;;;;;;;41.20;33.87;;;;;;;;;;5043967;28;20465;-54
2023/12/06 18:48:00;;;;;;;38.80;33.17;;;;;;;;;;5045524;28;20485;-53
2023/12/06 18:50:28;;;;;;;41.80;33.10;;;;;;;;;;5047083;28;20578;-53
2023/12/06 18:52:55;;;;;;;43.97;34.20;;;;;;;;;;5046235;28;20444;-54
2023/12/06 18:55:24;;;;;;;46.20;37.40;;;;;;;;;;5046072;28;20438;-55
2023/12/06 18:57:51;;;;;;;50.27;41.57;;;;;;;;;;5045949;28;20433;-50
2023/12/06 19:00:19;;;;;;;55.07;42.07;;;;;;;;;;5041965;28;20453;-55
2023/12/06 19:02:47;;;;;;;54.43;40.50;;;;;;;;;;5043166;28;20529;-57
2023/12/06 19:05:14;;;;;;;48.00;40.27;;;;;;;;;;5045814;28;20929;-54
2023/12/06 19:10:15;;;;;;;45.93;37.53;;;;;;;;;;5068171;27;20592;-55
2023/12/06 19:12:43;;;;;;;51.73;41.87;;;;;;;;;;5064697;28;20564;-56